KATY/ATY METAR and TAF weather

Enter ICAO airport designator
Station Type Date Time Source
KATY METAR 2020/07/12 04:53 UTC NOAA

KATY 120453Z AUTO 02003KT 10SM CLR 16/14 A3001 RMK AO2 SLP156 T01610139


Station Type Date Time Source
KATY Decoded METAR 2020/07/12 04:53 UTC NOAA

WATERTOWN MUNICIPAL AIRPORT, SD, United States (KATY) 44-54N 097-09W 532M
Jul 12, 2020 - 12:53 AM EDT / 2020.07.12 0453 UTC
Wind: from the NNE (020 degrees) at 3 MPH (3 KT):0
Visibility: 10 mile(s):0
Sky conditions: clear
Temperature: 61.0 F (16.1 C)
Dew Point: 57.0 F (13.9 C)
Relative Humidity: 86%
Pressure (altimeter): 30.01 in. Hg (1016 hPa)
ob: KATY 120453Z AUTO 02003KT 10SM CLR 16/14 A3001 RMK AO2 SLP156 T01610139
cycle: 5

Station Type Date Time Source
KATY TAF 2020/07/12 06:22 UTC NOAA

TAF KATY 120520Z 1206/1306 01006KT P6SM SKC
FM121000 00000KT 5SM BR SKC
FM121300 00000KT P6SM SKC
FM122300 20006KT P6SM FEW060 FEW250
FM130400 17007KT P6SM SKC

Example: see airport list